createdAt,value
2019-01-25T00:00:02.198Z,39.90
2019-01-25T00:02:34.098Z,34.07
2019-01-25T00:05:05.522Z,29.80
2019-01-25T00:07:35.765Z,31.67
2019-01-25T00:10:07.350Z,33.70
2019-01-25T00:12:38.985Z,34.90
2019-01-25T00:15:09.437Z,29.23
2019-01-25T00:17:39.845Z,35.33
2019-01-25T00:20:10.293Z,32.90
2019-01-25T00:22:40.451Z,36.90
2019-01-25T00:25:10.751Z,32.90
2019-01-25T00:27:40.913Z,28.07
2019-01-25T00:30:12.577Z,30.17
2019-01-25T00:32:42.693Z,31.67
2019-01-25T00:35:13.047Z,33.67
2019-01-25T00:37:43.295Z,28.67
2019-01-25T00:40:14.322Z,32.67
2019-01-25T00:42:44.509Z,32.03
2019-01-25T00:45:14.974Z,29.83
2019-01-25T00:47:45.166Z,28.67
2019-01-25T00:50:17.609Z,33.33
2019-01-25T00:52:48.260Z,27.53
2019-01-25T00:55:18.371Z,29.80
2019-01-25T00:57:48.674Z,26.10
2019-01-25T01:00:21.575Z,27.00
2019-01-25T01:02:51.819Z,28.17
2019-01-25T01:05:23.354Z,25.70
2019-01-25T01:07:53.515Z,26.77
2019-01-25T01:10:23.660Z,26.80
2019-01-25T01:12:53.841Z,30.07
2019-01-25T01:15:24.019Z,22.57
2019-01-25T01:17:54.447Z,25.37
2019-01-25T01:20:24.635Z,26.90
2019-01-25T01:22:54.765Z,27.07
2019-01-25T01:25:24.931Z,28.97
2019-01-25T01:27:55.334Z,23.27
2019-01-25T01:30:25.681Z,27.77
2019-01-25T01:32:55.855Z,25.70
2019-01-25T01:35:26.266Z,29.17
2019-01-25T01:37:56.417Z,29.77
2019-01-25T01:40:26.825Z,26.03
2019-01-25T01:42:56.983Z,24.20
2019-01-25T01:45:27.390Z,29.17
2019-01-25T01:47:57.538Z,23.90
2019-01-25T01:50:28.735Z,25.93
2019-01-25T01:52:59.034Z,29.83
2019-01-25T01:55:29.161Z,31.50
2019-01-25T01:57:59.362Z,29.93
2019-01-25T02:00:29.615Z,25.93
2019-01-25T02:03:00.119Z,30.50
2019-01-25T02:05:30.281Z,31.17
2019-01-25T02:08:00.440Z,28.43
2019-01-25T02:10:30.662Z,29.13
2019-01-25T02:13:00.910Z,29.13
2019-01-25T02:15:31.037Z,27.17
2019-01-25T02:18:01.421Z,29.53
2019-01-25T02:20:31.969Z,23.53
2019-01-25T02:23:02.155Z,30.47
2019-01-25T02:25:32.302Z,28.97
2019-01-25T02:28:02.486Z,30.90
2019-01-25T02:30:32.719Z,25.43
2019-01-25T02:33:02.860Z,27.20
2019-01-25T02:35:33.392Z,28.70
2019-01-25T02:38:03.666Z,27.13
2019-01-25T02:40:39.043Z,26.03
2019-01-25T02:43:05.854Z,27.27
2019-01-25T02:45:36.026Z,27.80
2019-01-25T02:48:06.154Z,24.23
2019-01-25T02:50:36.345Z,22.63
2019-01-25T02:53:06.534Z,20.70
2019-01-25T02:55:36.927Z,18.43
2019-01-25T02:58:07.141Z,24.43
2019-01-25T03:00:37.394Z,20.60
2019-01-25T03:03:07.714Z,23.77
2019-01-25T03:05:37.840Z,18.73
2019-01-25T03:08:07.884Z,24.07
2019-01-25T03:10:38.099Z,19.73
2019-01-25T03:13:08.222Z,19.70
2019-01-25T03:15:38.597Z,22.57
2019-01-25T03:18:08.751Z,20.33
2019-01-25T03:20:38.882Z,20.77
2019-01-25T03:23:09.042Z,23.00
2019-01-25T03:25:39.257Z,19.83
2019-01-25T03:28:09.442Z,22.13
2019-01-25T03:30:39.532Z,22.77
2019-01-25T03:33:09.694Z,24.47
2019-01-25T03:35:40.303Z,20.17
2019-01-25T03:38:10.514Z,20.07
2019-01-25T03:40:40.838Z,19.70
2019-01-25T03:43:10.981Z,20.13
2019-01-25T03:45:41.146Z,19.90
2019-01-25T03:48:11.303Z,23.77
2019-01-25T03:50:41.438Z,21.97
2019-01-25T03:53:11.726Z,16.87
2019-01-25T03:55:42.035Z,25.40
2019-01-25T03:58:12.304Z,19.67
2019-01-25T04:00:42.433Z,22.67
2019-01-25T04:03:12.582Z,25.13
2019-01-25T04:05:42.722Z,20.60
2019-01-25T04:08:12.885Z,22.90
2019-01-25T04:10:43.129Z,23.50
2019-01-25T04:13:13.369Z,22.30
2019-01-25T04:15:43.646Z,22.70
2019-01-25T04:18:13.841Z,20.70
2019-01-25T04:20:44.089Z,20.80
2019-01-25T04:23:14.277Z,22.10
2019-01-25T04:25:44.450Z,21.67
2019-01-25T04:28:14.695Z,21.20
2019-01-25T04:30:44.840Z,18.27
2019-01-25T04:33:15.122Z,17.80
2019-01-25T04:35:45.314Z,22.57
2019-01-25T04:38:15.418Z,21.13
2019-01-25T04:40:45.598Z,21.17
2019-01-25T04:43:15.774Z,22.53
2019-01-25T04:45:47.194Z,22.73
2019-01-25T04:48:17.385Z,20.00
2019-01-25T04:50:47.522Z,18.10
2019-01-25T04:53:17.662Z,18.87
2019-01-25T04:55:47.787Z,20.60
2019-01-25T04:58:19.203Z,26.63
2019-01-25T05:00:49.493Z,19.10
2019-01-25T05:03:19.761Z,18.53
2019-01-25T05:05:50.614Z,19.00
2019-01-25T05:08:23.689Z,21.57
2019-01-25T05:10:53.933Z,22.13
2019-01-25T05:13:24.027Z,24.97
2019-01-25T05:15:54.352Z,23.83
2019-01-25T05:18:24.631Z,22.43
2019-01-25T05:20:54.770Z,23.90
2019-01-25T05:23:24.951Z,22.07
2019-01-25T05:25:55.042Z,23.60
2019-01-25T05:28:25.197Z,25.57
2019-01-25T05:31:02.920Z,23.70
2019-01-25T05:33:34.256Z,22.67
2019-01-25T05:36:05.299Z,22.70
2019-01-25T05:38:36.556Z,25.53
2019-01-25T05:41:06.715Z,23.73
2019-01-25T05:43:43.408Z,21.00
2019-01-25T05:46:13.561Z,22.87
2019-01-25T05:48:43.811Z,22.67
2019-01-25T05:51:14.121Z,21.67
2019-01-25T05:53:53.849Z,25.93
2019-01-25T05:56:24.242Z,27.70
2019-01-25T05:58:54.455Z,28.70
2019-01-25T06:01:26.362Z,29.97
2019-01-25T06:03:57.766Z,26.57
2019-01-25T06:06:27.971Z,29.27
2019-01-25T06:08:58.124Z,28.13
2019-01-25T06:11:35.245Z,29.30
2019-01-25T06:14:00.142Z,34.27
2019-01-25T06:16:30.433Z,23.23
2019-01-25T06:19:00.618Z,31.03
2019-01-25T06:21:30.779Z,28.17
2019-01-25T06:24:00.902Z,26.57
2019-01-25T06:26:31.113Z,27.40
2019-01-25T06:29:01.251Z,26.83
2019-01-25T06:31:31.418Z,27.77
2019-01-25T06:34:01.631Z,24.30
2019-01-25T06:36:31.701Z,26.77
2019-01-25T06:39:01.961Z,29.73
2019-01-25T06:41:32.362Z,25.20
2019-01-25T06:44:02.542Z,28.60
2019-01-25T06:46:32.786Z,24.50
2019-01-25T06:49:02.905Z,28.63
2019-01-25T06:51:33.099Z,27.80
2019-01-25T06:54:03.273Z,28.17
2019-01-25T06:56:33.651Z,28.70
2019-01-25T06:59:08.438Z,25.37
2019-01-25T07:01:56.257Z,30.67
2019-01-25T07:04:26.749Z,21.93
2019-01-25T07:06:56.805Z,27.13
2019-01-25T07:09:26.910Z,22.43
2019-01-25T07:11:57.047Z,21.83
2019-01-25T07:14:27.171Z,22.97
2019-01-25T07:16:58.423Z,27.07
2019-01-25T07:19:28.684Z,28.37
2019-01-25T07:21:58.810Z,23.07
2019-01-25T07:24:29.001Z,25.00
2019-01-25T07:26:59.173Z,25.13
2019-01-25T07:29:29.412Z,25.00
2019-01-25T07:31:59.722Z,25.63
2019-01-25T07:34:29.897Z,30.63
2019-01-25T07:37:00.105Z,28.63
2019-01-25T07:39:30.517Z,22.33
2019-01-25T07:42:02.379Z,26.87
2019-01-25T07:44:33.258Z,27.50
2019-01-25T07:47:03.492Z,29.87
2019-01-25T07:49:33.668Z,29.00
2019-01-25T07:52:04.167Z,24.70
2019-01-25T07:54:34.285Z,29.07
2019-01-25T07:57:04.500Z,31.30
2019-01-25T07:59:34.729Z,34.10
2019-01-25T08:02:04.975Z,26.53
2019-01-25T08:04:35.283Z,30.80
2019-01-25T08:07:05.460Z,27.27
2019-01-25T08:09:35.789Z,34.77
2019-01-25T08:12:07.489Z,34.37
2019-01-25T08:14:38.014Z,30.10
2019-01-25T08:17:08.323Z,31.83
2019-01-25T08:19:38.682Z,28.70
2019-01-25T08:22:09.615Z,32.17
2019-01-25T08:24:39.826Z,23.03
2019-01-25T08:27:10.006Z,26.27
2019-01-25T08:29:40.103Z,21.63
2019-01-25T08:32:10.246Z,26.93
2019-01-25T08:34:40.554Z,25.57
2019-01-25T08:37:10.837Z,20.90
2019-01-25T08:39:41.265Z,28.67
2019-01-25T08:42:15.590Z,30.00
2019-01-25T08:44:43.586Z,27.63
2019-01-25T08:47:13.880Z,24.33
2019-01-25T08:49:44.049Z,32.30
2019-01-25T08:52:15.473Z,26.83
2019-01-25T08:54:45.651Z,28.67
2019-01-25T08:57:16.035Z,29.90
2019-01-25T08:59:46.280Z,27.63
2019-01-25T09:02:16.501Z,25.03
2019-01-25T09:04:46.650Z,27.23
2019-01-25T09:07:16.839Z,24.53
2019-01-25T09:09:47.047Z,26.17
2019-01-25T09:12:23.297Z,31.30
2019-01-25T09:14:49.193Z,32.10
2019-01-25T09:17:19.501Z,25.13
2019-01-25T09:19:49.831Z,32.77
2019-01-25T09:22:19.986Z,41.27
2019-01-25T09:24:50.131Z,30.20
2019-01-25T09:27:20.189Z,32.93
2019-01-25T09:29:50.334Z,30.40
2019-01-25T09:32:20.603Z,26.30
2019-01-25T09:34:51.130Z,23.73
2019-01-25T09:37:21.702Z,37.03
2019-01-25T09:39:51.892Z,29.13
2019-01-25T09:42:22.162Z,26.47
2019-01-25T09:44:53.911Z,30.57
2019-01-25T09:47:24.152Z,35.43
2019-01-25T09:49:54.274Z,40.13
2019-01-25T09:52:24.518Z,38.90
2019-01-25T09:54:54.680Z,42.00
2019-01-25T09:57:25.276Z,39.13
2019-01-25T09:59:55.621Z,34.70
2019-01-25T10:02:25.786Z,53.93
2019-01-25T10:04:55.928Z,30.20
2019-01-25T10:07:26.094Z,37.83
2019-01-25T10:09:56.224Z,29.37
2019-01-25T10:12:28.111Z,28.97
2019-01-25T10:14:58.341Z,29.30
2019-01-25T10:17:28.457Z,37.57
2019-01-25T10:19:58.623Z,56.60
2019-01-25T10:22:28.750Z,37.67
2019-01-25T10:24:58.954Z,33.23
2019-01-25T10:27:29.205Z,30.87
2019-01-25T10:29:59.422Z,38.93
2019-01-25T10:32:29.642Z,34.33
2019-01-25T10:34:59.993Z,40.93
2019-01-25T10:37:30.149Z,157.83
2019-01-25T10:40:00.335Z,47.23
2019-01-25T10:42:30.470Z,40.87
2019-01-25T10:45:04.415Z,38.10
2019-01-25T10:47:32.535Z,36.37
2019-01-25T10:50:02.591Z,41.80
2019-01-25T10:52:32.742Z,33.50
2019-01-25T10:55:02.926Z,40.33
2019-01-25T10:57:33.025Z,47.03
2019-01-25T11:00:03.200Z,39.07
2019-01-25T11:02:33.655Z,44.73
2019-01-25T11:05:04.583Z,34.57
2019-01-25T11:07:34.661Z,41.30
2019-01-25T11:10:05.325Z,76.87
2019-01-25T11:12:36.387Z,44.17
2019-01-25T11:15:08.430Z,37.23
2019-01-25T11:17:38.544Z,45.83
2019-01-25T11:20:11.693Z,38.60
2019-01-25T11:22:41.867Z,40.27
2019-01-25T11:25:24.137Z,36.20
2019-01-25T11:27:54.252Z,39.63
2019-01-25T11:30:24.673Z,33.97
2019-01-25T11:32:54.905Z,39.40
2019-01-25T11:35:25.186Z,32.30
2019-01-25T11:37:55.504Z,35.87
2019-01-25T11:40:31.255Z,35.43
2019-01-25T11:43:08.214Z,31.47
2019-01-25T11:45:33.680Z,35.93
2019-01-25T11:48:05.430Z,38.27
2019-01-25T11:50:35.593Z,29.57
2019-01-25T11:53:05.873Z,32.70
2019-01-25T11:55:36.003Z,38.47
2019-01-25T11:58:06.230Z,36.33
2019-01-25T12:00:38.013Z,30.80
2019-01-25T12:03:08.382Z,38.97
2019-01-25T12:05:39.608Z,28.17
2019-01-25T12:08:10.767Z,29.73
2019-01-25T12:10:42.569Z,29.93
2019-01-25T12:13:16.309Z,29.23
2019-01-25T12:15:46.796Z,40.30
2019-01-25T12:18:16.948Z,33.57
2019-01-25T12:20:48.313Z,36.27
2019-01-25T12:23:18.442Z,34.47
2019-01-25T12:25:48.631Z,30.10
2019-01-25T12:28:18.866Z,31.43
2019-01-25T12:30:49.043Z,38.40
2019-01-25T12:33:19.181Z,41.80
2019-01-25T12:35:49.632Z,38.60
2019-01-25T12:38:19.946Z,32.27
2019-01-25T12:40:50.299Z,35.63
2019-01-25T12:43:24.099Z,39.97
2019-01-25T12:45:52.647Z,37.07
2019-01-25T12:48:23.056Z,34.47
2019-01-25T12:51:20.302Z,31.83
2019-01-25T12:53:50.572Z,37.33
2019-01-25T12:56:21.861Z,34.27
2019-01-25T12:58:52.145Z,34.63
2019-01-25T13:01:22.862Z,41.73
2019-01-25T13:03:53.509Z,37.40
2019-01-25T13:06:24.957Z,33.60
2019-01-25T13:08:55.277Z,33.80
2019-01-25T13:11:25.594Z,30.77
2019-01-25T13:13:55.819Z,29.23
2019-01-25T13:16:26.074Z,37.47
2019-01-25T13:18:56.227Z,36.90
2019-01-25T13:21:26.488Z,42.73
2019-01-25T13:23:56.673Z,48.80
2019-01-25T13:26:26.893Z,45.03
2019-01-25T13:28:57.172Z,44.67
2019-01-25T13:31:27.395Z,42.53
2019-01-25T13:33:57.718Z,36.70
2019-01-25T13:36:27.881Z,38.97
2019-01-25T13:38:58.074Z,40.87
2019-01-25T13:41:28.269Z,36.70
2019-01-25T13:43:58.498Z,44.30
2019-01-25T13:46:28.994Z,46.00
2019-01-25T13:49:02.531Z,51.80
2019-01-25T13:51:32.855Z,57.37
2019-01-25T13:54:03.119Z,55.07
2019-01-25T13:56:34.326Z,48.03
2019-01-25T13:59:07.801Z,50.10
2019-01-25T14:01:38.308Z,50.73
2019-01-25T14:04:08.540Z,57.30
2019-01-25T14:06:38.711Z,50.43
2019-01-25T14:09:10.177Z,37.17
2019-01-25T14:11:40.508Z,36.30
2019-01-25T14:14:10.731Z,39.00
2019-01-25T14:16:40.909Z,46.23
2019-01-25T14:19:11.131Z,40.87
2019-01-25T14:21:41.267Z,38.87
2019-01-25T14:24:11.495Z,38.57
2019-01-25T14:26:41.747Z,48.70
2019-01-25T14:29:11.926Z,42.80
2019-01-25T14:31:41.978Z,42.37
2019-01-25T14:34:12.202Z,39.53
2019-01-25T14:36:42.473Z,42.70
2019-01-25T14:39:12.622Z,41.57
2019-01-25T14:41:42.766Z,51.47
2019-01-25T14:44:13.047Z,46.67
2019-01-25T14:46:43.388Z,65.53
2019-01-25T14:49:13.598Z,78.20
2019-01-25T14:51:43.800Z,69.77
2019-01-25T14:54:14.172Z,56.57
2019-01-25T14:56:44.636Z,54.63
2019-01-25T14:59:14.822Z,53.73
2019-01-25T15:01:45.055Z,45.33
2019-01-25T15:04:15.193Z,47.47
2019-01-25T15:06:46.411Z,52.90
2019-01-25T15:09:16.754Z,66.13
2019-01-25T15:11:46.970Z,53.27
2019-01-25T15:14:18.014Z,52.13
2019-01-25T15:16:48.476Z,50.70
2019-01-25T15:19:18.874Z,51.53
2019-01-25T15:21:49.138Z,47.37
2019-01-25T15:24:19.300Z,41.53
2019-01-25T15:26:49.503Z,46.40
2019-01-25T15:29:19.544Z,45.17
2019-01-25T15:31:49.715Z,41.33
2019-01-25T15:34:19.858Z,46.70
2019-01-25T15:36:50.203Z,47.17
2019-01-25T15:39:20.424Z,41.93
2019-01-25T15:41:50.627Z,48.83
2019-01-25T15:44:20.872Z,51.87
2019-01-25T15:46:51.176Z,46.97
2019-01-25T15:49:21.395Z,54.53
2019-01-25T15:51:52.778Z,51.17
2019-01-25T15:54:23.152Z,52.10
2019-01-25T15:56:53.323Z,57.97
2019-01-25T15:59:23.449Z,61.37
2019-01-25T16:01:53.841Z,54.07
2019-01-25T16:04:24.504Z,52.90
2019-01-25T16:06:54.888Z,62.27
2019-01-25T16:09:25.403Z,79.20
2019-01-25T16:11:55.950Z,94.03
2019-01-25T16:14:27.558Z,106.07
2019-01-25T16:16:57.759Z,109.90
2019-01-25T16:19:29.397Z,121.63
2019-01-25T16:22:00.491Z,116.47
2019-01-25T16:24:31.258Z,84.13
2019-01-25T16:27:01.772Z,86.07
2019-01-25T16:29:32.502Z,133.23
2019-01-25T16:32:02.697Z,120.17
2019-01-25T16:34:33.950Z,144.33
2019-01-25T16:37:05.372Z,170.87
2019-01-25T16:39:36.036Z,173.67
2019-01-25T16:42:10.372Z,196.47
2019-01-25T16:44:41.069Z,195.70
2019-01-25T16:47:11.267Z,174.57
2019-01-25T16:49:47.106Z,144.17
2019-01-25T16:52:17.787Z,130.90
2019-01-25T16:55:17.732Z,98.10
2019-01-25T16:57:49.756Z,75.73
2019-01-25T17:00:28.870Z,70.27
2019-01-25T17:03:06.654Z,67.77
2019-01-25T17:05:38.207Z,80.43
2019-01-25T17:08:09.165Z,81.30
2019-01-25T17:10:41.050Z,95.43
2019-01-25T17:13:12.330Z,81.83
2019-01-25T17:15:42.645Z,99.77
2019-01-25T17:18:14.102Z,89.33
2019-01-25T17:20:44.431Z,82.90
2019-01-25T17:23:14.601Z,82.93
2019-01-25T17:25:44.910Z,85.90
2019-01-25T17:28:15.135Z,102.20
2019-01-25T17:30:45.439Z,104.97
2019-01-25T17:33:15.616Z,116.03
2019-01-25T17:35:45.930Z,126.87
2019-01-25T17:38:16.255Z,133.90
2019-01-25T17:40:47.287Z,115.10
2019-01-25T17:43:17.586Z,101.27
2019-01-25T17:45:47.820Z,97.27
2019-01-25T17:48:20.525Z,99.03
2019-01-25T17:50:51.001Z,97.10
2019-01-25T17:53:21.372Z,88.40
2019-01-25T17:55:51.712Z,107.73
2019-01-25T17:58:21.955Z,142.27
2019-01-25T18:00:54.913Z,134.20
2019-01-25T18:03:25.408Z,113.10
2019-01-25T18:05:55.696Z,115.27
2019-01-25T18:08:26.063Z,113.40
2019-01-25T18:10:56.303Z,102.10
2019-01-25T18:13:26.426Z,103.23
2019-01-25T18:15:56.551Z,98.73
2019-01-25T18:18:26.799Z,93.27
2019-01-25T18:20:56.977Z,104.80
2019-01-25T18:23:27.463Z,100.23
2019-01-25T18:26:05.019Z,119.80
2019-01-25T18:28:50.431Z,126.37
2019-01-25T18:31:22.524Z,135.37
2019-01-25T18:33:52.741Z,130.20
2019-01-25T18:36:22.945Z,113.63
2019-01-25T18:38:53.111Z,102.80
2019-01-25T18:41:23.415Z,106.27
2019-01-25T18:43:53.617Z,97.87
2019-01-25T18:46:23.771Z,122.00
2019-01-25T18:48:53.908Z,117.90
2019-01-25T18:51:24.104Z,133.13
2019-01-25T18:53:54.178Z,136.03
2019-01-25T18:56:25.963Z,118.30
2019-01-25T18:58:56.261Z,108.43
2019-01-25T19:01:26.408Z,95.17
2019-01-25T19:03:56.680Z,92.87
2019-01-25T19:06:26.941Z,89.57
2019-01-25T19:08:57.343Z,94.53
2019-01-25T19:11:27.511Z,119.27
2019-01-25T19:13:58.744Z,130.47
2019-01-25T19:16:29.124Z,130.03
2019-01-25T19:18:59.301Z,130.00
2019-01-25T19:21:29.537Z,134.83
2019-01-25T19:23:59.740Z,144.37
2019-01-25T19:26:29.916Z,158.60
2019-01-25T19:29:00.337Z,153.87
2019-01-25T19:31:30.652Z,133.93
2019-01-25T19:34:00.846Z,113.60
2019-01-25T19:36:31.223Z,103.63
2019-01-25T19:39:01.454Z,105.03
2019-01-25T19:41:33.397Z,103.67
2019-01-25T19:44:03.626Z,114.20
2019-01-25T19:46:34.010Z,115.73
2019-01-25T19:49:04.597Z,125.57
2019-01-25T19:51:34.841Z,127.03
2019-01-25T19:54:06.679Z,130.60
2019-01-25T19:56:37.018Z,127.20
2019-01-25T19:59:07.857Z,126.90
2019-01-25T20:01:38.074Z,118.20
2019-01-25T20:04:09.227Z,121.17
2019-01-25T20:06:39.530Z,122.03
2019-01-25T20:09:10.835Z,111.10
2019-01-25T20:11:41.283Z,118.73
2019-01-25T20:14:11.877Z,115.30
2019-01-25T20:16:42.223Z,114.37
2019-01-25T20:19:12.594Z,110.23
2019-01-25T20:21:42.776Z,116.00
2019-01-25T20:24:15.708Z,111.93
2019-01-25T20:26:45.908Z,115.07
2019-01-25T20:29:16.278Z,113.40
2019-01-25T20:31:46.554Z,112.33
2019-01-25T20:34:16.785Z,110.93
2019-01-25T20:36:47.157Z,110.63
2019-01-25T20:39:18.740Z,110.20
2019-01-25T20:41:48.914Z,120.67
2019-01-25T20:44:19.075Z,127.20
2019-01-25T20:46:49.450Z,119.30
2019-01-25T20:49:19.884Z,116.43
2019-01-25T20:51:50.275Z,122.97
2019-01-25T20:54:20.487Z,116.83
2019-01-25T20:56:50.758Z,118.50
2019-01-25T20:59:21.163Z,127.17
2019-01-25T21:01:51.398Z,124.93
2019-01-25T21:04:22.593Z,118.80
2019-01-25T21:06:54.013Z,123.67
2019-01-25T21:09:24.310Z,119.97
2019-01-25T21:11:54.532Z,106.17
2019-01-25T21:14:24.712Z,98.80
2019-01-25T21:16:54.958Z,117.47
2019-01-25T21:19:25.503Z,111.60
2019-01-25T21:21:55.791Z,109.67
2019-01-25T21:24:26.061Z,123.90
2019-01-25T21:26:56.266Z,139.87
2019-01-25T21:29:26.670Z,150.80
2019-01-25T21:31:56.910Z,153.73
2019-01-25T21:34:27.054Z,166.33
2019-01-25T21:36:57.407Z,147.87
2019-01-25T21:39:27.517Z,142.17
2019-01-25T21:41:57.793Z,140.67
2019-01-25T21:44:28.097Z,137.37
2019-01-25T21:46:58.524Z,121.67
2019-01-25T21:49:28.703Z,124.63
2019-01-25T21:52:01.342Z,119.17
2019-01-25T21:54:33.518Z,124.20
2019-01-25T21:57:03.786Z,108.50
2019-01-25T21:59:37.142Z,124.57
2019-01-25T22:02:07.374Z,142.93
2019-01-25T22:04:37.694Z,132.80
2019-01-25T22:07:07.851Z,137.83
2019-01-25T22:09:38.954Z,115.93
2019-01-25T22:12:09.122Z,127.73
2019-01-25T22:14:39.332Z,140.87
2019-01-25T22:17:09.519Z,142.13
2019-01-25T22:19:39.670Z,135.83
2019-01-25T22:22:10.081Z,136.90
2019-01-25T22:24:40.273Z,137.17
2019-01-25T22:27:10.414Z,144.20
2019-01-25T22:29:40.638Z,133.53
2019-01-25T22:32:10.858Z,128.80
2019-01-25T22:34:41.187Z,122.37
2019-01-25T22:37:11.394Z,120.60
2019-01-25T22:39:41.632Z,127.40
2019-01-25T22:42:11.909Z,132.97
2019-01-25T22:44:42.098Z,121.37
2019-01-25T22:47:12.374Z,130.10
2019-01-25T22:49:42.703Z,143.77
2019-01-25T22:52:12.890Z,129.77
2019-01-25T22:54:42.993Z,125.47
2019-01-25T22:57:13.208Z,119.77
2019-01-25T22:59:43.409Z,128.53
2019-01-25T23:02:13.740Z,122.03
2019-01-25T23:05:12.031Z,117.97
2019-01-25T23:07:42.209Z,116.33
2019-01-25T23:10:22.839Z,119.73
2019-01-25T23:12:53.194Z,121.93
2019-01-25T23:15:23.427Z,120.80
2019-01-25T23:17:53.636Z,123.10
2019-01-25T23:20:23.854Z,124.10
2019-01-25T23:22:54.014Z,120.00
2019-01-25T23:25:24.223Z,119.30
2019-01-25T23:27:54.451Z,126.20
2019-01-25T23:30:24.757Z,127.43
2019-01-25T23:32:54.944Z,133.07
2019-01-25T23:35:25.088Z,128.37
2019-01-25T23:37:55.233Z,134.80
2019-01-25T23:40:25.429Z,122.60
2019-01-25T23:42:55.553Z,130.53
2019-01-25T23:45:25.743Z,133.80
2019-01-25T23:47:56.195Z,135.07
2019-01-25T23:50:26.430Z,126.07
2019-01-25T23:52:56.663Z,133.27
2019-01-25T23:55:27.817Z,125.43
2019-01-25T23:57:57.929Z,127.77
